createdAt,value
2019-04-19T00:00:55.977Z,15.20
2019-04-19T00:03:30.374Z,15.20
2019-04-19T00:06:13.782Z,15.10
2019-04-19T00:08:58.927Z,15.00
2019-04-19T00:11:18.617Z,15.00
2019-04-19T00:13:39.058Z,14.80
2019-04-19T00:16:08.902Z,14.70
2019-04-19T00:18:46.148Z,14.70
2019-04-19T00:21:30.515Z,14.60
2019-04-19T00:23:45.730Z,14.60
2019-04-19T00:26:14.822Z,14.60
2019-04-19T00:28:51.408Z,14.60
2019-04-19T00:31:29.515Z,14.50
2019-04-19T00:33:50.989Z,14.50
2019-04-19T00:36:19.760Z,14.50
2019-04-19T00:39:05.068Z,14.40
2019-04-19T00:41:35.737Z,14.40
2019-04-19T00:44:15.270Z,14.30
2019-04-19T00:46:53.386Z,14.20
2019-04-19T00:49:16.038Z,14.10
2019-04-19T00:51:49.121Z,14.00
2019-04-19T00:54:18.085Z,13.90
2019-04-19T00:56:46.695Z,13.80
2019-04-19T00:59:14.289Z,13.60
2019-04-19T01:01:42.063Z,13.50
2019-04-19T01:04:18.330Z,13.60
2019-04-19T01:06:50.899Z,13.50
2019-04-19T01:09:29.033Z,13.50
2019-04-19T01:12:04.492Z,13.50
2019-04-19T01:14:31.257Z,13.40
2019-04-19T01:17:05.354Z,13.40
2019-04-19T01:19:21.505Z,13.30
2019-04-19T01:21:53.350Z,13.20
2019-04-19T01:24:27.474Z,13.10
2019-04-19T01:26:57.206Z,13.20
2019-04-19T01:29:26.266Z,13.20
2019-04-19T01:32:03.190Z,13.10
2019-04-19T01:34:30.591Z,13.10
2019-04-19T01:37:05.713Z,13.00
2019-04-19T01:39:46.955Z,12.90
2019-04-19T01:42:23.036Z,12.90
2019-04-19T01:44:55.852Z,13.00
2019-04-19T01:47:36.640Z,12.90
2019-04-19T01:50:03.225Z,12.90
2019-04-19T01:53:00.577Z,12.80
2019-04-19T01:55:04.822Z,12.80
2019-04-19T01:57:26.340Z,12.80
2019-04-19T01:59:59.140Z,12.80
2019-04-19T02:02:28.290Z,12.70
2019-04-19T02:05:06.219Z,12.70
2019-04-19T02:07:32.778Z,12.60
2019-04-19T02:10:13.122Z,12.50
2019-04-19T02:12:42.018Z,12.50
2019-04-19T02:15:11.132Z,12.40
2019-04-19T02:17:43.141Z,12.40
2019-04-19T02:20:11.795Z,12.40
2019-04-19T02:22:42.349Z,12.40
2019-04-19T02:25:32.166Z,12.30
2019-04-19T02:28:02.633Z,12.30
2019-04-19T02:30:49.706Z,12.20
2019-04-19T02:33:29.749Z,12.10
2019-04-19T02:36:04.480Z,12.10
2019-04-19T02:38:37.339Z,12.10
2019-04-19T02:41:10.937Z,12.10
2019-04-19T02:43:49.370Z,12.00
2019-04-19T02:46:24.380Z,11.90
2019-04-19T02:48:48.094Z,11.90
2019-04-19T02:51:24.113Z,11.90
2019-04-19T02:53:39.300Z,11.80
2019-04-19T02:56:38.041Z,11.80
2019-04-19T02:59:21.178Z,11.60
2019-04-19T03:04:37.623Z,11.50
2019-04-19T03:06:41.583Z,11.50
2019-04-19T03:09:07.244Z,11.40
2019-04-19T03:11:53.564Z,11.40
2019-04-19T03:14:20.618Z,11.30
2019-04-19T03:16:58.145Z,11.30
2019-04-19T03:19:22.448Z,11.30
2019-04-19T03:21:55.992Z,11.30
2019-04-19T03:24:30.191Z,11.20
2019-04-19T03:26:58.109Z,11.10
2019-04-19T03:29:26.866Z,11.10
2019-04-19T03:32:21.963Z,11.00
2019-04-19T03:34:52.479Z,11.00
2019-04-19T03:37:07.653Z,10.90
2019-04-19T03:39:46.001Z,10.90
2019-04-19T03:42:21.686Z,10.90
2019-04-19T03:44:51.071Z,10.90
2019-04-19T03:47:21.394Z,10.80
2019-04-19T03:49:55.416Z,10.70
2019-04-19T03:52:29.109Z,10.60
2019-04-19T03:55:00.036Z,10.60
2019-04-19T03:57:25.258Z,10.50
2019-04-19T03:59:41.438Z,10.50
2019-04-19T04:02:15.275Z,10.40
2019-04-19T04:04:48.347Z,10.40
2019-04-19T04:07:20.158Z,10.40
2019-04-19T04:09:51.618Z,10.30
2019-04-19T04:12:34.578Z,10.30
2019-04-19T04:15:23.846Z,10.30
2019-04-19T04:17:42.069Z,10.30
2019-04-19T04:20:11.708Z,10.30
2019-04-19T04:22:44.063Z,10.20
2019-04-19T04:25:20.336Z,10.20
2019-04-19T04:27:57.816Z,10.10
2019-04-19T04:30:22.846Z,10.00
2019-04-19T04:32:57.211Z,10.00
2019-04-19T04:35:30.305Z,10.00
2019-04-19T04:38:02.678Z,9.90
2019-04-19T04:40:21.082Z,10.00
2019-04-19T04:43:04.316Z,10.00
2019-04-19T04:45:49.528Z,10.00
2019-04-19T04:48:29.381Z,10.00
2019-04-19T04:51:07.452Z,10.00
2019-04-19T04:53:19.884Z,10.00
2019-04-19T04:55:57.954Z,10.10
2019-04-19T04:58:30.406Z,10.10
2019-04-19T05:01:01.703Z,10.10
2019-04-19T05:03:45.578Z,10.20
2019-04-19T05:06:19.125Z,10.20
2019-04-19T05:09:06.581Z,10.20
2019-04-19T05:11:36.479Z,10.20
2019-04-19T05:14:09.745Z,10.20
2019-04-19T05:16:46.466Z,10.20
2019-04-19T05:19:09.771Z,10.20
2019-04-19T05:21:40.065Z,10.20
2019-04-19T05:24:15.048Z,10.30
2019-04-19T05:26:49.517Z,10.30
2019-04-19T05:29:10.955Z,10.30
2019-04-19T05:31:35.972Z,10.30
2019-04-19T05:34:20.266Z,10.30
2019-04-19T05:36:51.162Z,10.40
2019-04-19T05:39:31.402Z,10.40
2019-04-19T05:41:56.454Z,10.50
2019-04-19T05:44:45.064Z,10.50
2019-04-19T05:47:06.222Z,10.50
2019-04-19T05:49:36.066Z,10.50
2019-04-19T05:52:28.771Z,10.60
2019-04-19T05:54:40.905Z,10.70
2019-04-19T05:57:33.180Z,10.80
2019-04-19T05:59:49.917Z,10.80
2019-04-19T06:02:24.490Z,10.80
2019-04-19T06:05:10.420Z,10.90
2019-04-19T06:07:30.275Z,10.90
2019-04-19T06:09:47.503Z,11.00
2019-04-19T06:12:22.944Z,11.10
2019-04-19T06:15:14.965Z,11.20
2019-04-19T06:17:35.224Z,11.20
2019-04-19T06:20:16.326Z,11.30
2019-04-19T06:22:47.755Z,11.40
2019-04-19T06:25:18.099Z,11.50
2019-04-19T06:30:38.868Z,11.60
2019-04-19T06:33:00.869Z,11.70
2019-04-19T06:35:22.560Z,11.70
2019-04-19T06:37:40.375Z,11.80
2019-04-19T06:40:17.860Z,11.90
2019-04-19T06:42:50.703Z,12.00
2019-04-19T06:45:31.512Z,12.10
2019-04-19T06:47:54.298Z,12.10
2019-04-19T06:50:24.507Z,12.20
2019-04-19T06:52:47.387Z,12.40
2019-04-19T06:55:24.746Z,12.50
2019-04-19T06:57:58.058Z,12.70
2019-04-19T07:00:30.487Z,12.90
2019-04-19T07:02:52.108Z,13.10
2019-04-19T07:05:33.827Z,13.30
2019-04-19T07:08:38.844Z,13.50
2019-04-19T07:10:51.325Z,13.60
2019-04-19T07:13:14.082Z,13.70
2019-04-19T07:15:50.027Z,13.70
2019-04-19T07:18:17.584Z,13.90
2019-04-19T07:20:44.752Z,14.00
2019-04-19T07:23:16.090Z,14.10
2019-04-19T07:25:54.011Z,14.10
2019-04-19T07:28:12.722Z,14.20
2019-04-19T07:30:37.242Z,14.30
2019-04-19T07:33:12.962Z,14.40
2019-04-19T07:36:01.924Z,14.50
2019-04-19T07:38:27.298Z,14.60
2019-04-19T07:41:03.892Z,14.60
2019-04-19T07:43:30.039Z,14.80
2019-04-19T07:46:08.283Z,14.80
2019-04-19T07:48:24.607Z,14.90
2019-04-19T07:53:33.472Z,15.10
2019-04-19T07:56:07.658Z,15.20
2019-04-19T07:58:52.073Z,15.30
2019-04-19T08:01:37.133Z,15.30
2019-04-19T08:04:21.933Z,15.40
2019-04-19T08:06:53.875Z,15.50
2019-04-19T08:09:22.387Z,15.60
2019-04-19T08:11:58.160Z,15.70
2019-04-19T08:14:34.415Z,15.80
2019-04-19T08:29:31.099Z,16.20
2019-04-19T08:31:52.783Z,16.30
2019-04-19T08:34:24.815Z,16.40
2019-04-19T08:36:59.760Z,16.50
2019-04-19T08:40:04.940Z,16.50
2019-04-19T08:42:34.513Z,16.60
2019-04-19T08:44:56.407Z,16.80
2019-04-19T08:47:43.207Z,16.80
2019-04-19T08:50:13.450Z,16.90
2019-04-19T08:52:41.719Z,17.00
2019-04-19T08:55:30.409Z,17.00
2019-04-19T08:57:49.535Z,17.00
2019-04-19T09:00:49.923Z,17.10
2019-04-19T09:03:01.471Z,17.10
2019-04-19T09:05:30.786Z,17.30
2019-04-19T09:08:05.118Z,17.40
2019-04-19T09:10:41.906Z,17.40
2019-04-19T09:13:22.652Z,17.50
2019-04-19T09:15:35.176Z,17.50
2019-04-19T09:20:44.090Z,17.70
2019-04-19T09:23:28.447Z,17.70
2019-04-19T09:26:03.525Z,17.80
2019-04-19T09:31:09.557Z,18.00
2019-04-19T09:33:31.039Z,18.00
2019-04-19T09:36:19.061Z,18.10
2019-04-19T09:39:07.074Z,18.10
2019-04-19T09:41:28.059Z,18.20
2019-04-19T09:44:21.802Z,18.30
2019-04-19T09:46:40.566Z,18.30
2019-04-19T09:49:23.247Z,18.30
2019-04-19T09:51:57.707Z,18.40
2019-04-19T09:54:35.817Z,18.40
2019-04-19T09:56:58.058Z,18.60
2019-04-19T09:59:24.173Z,18.60
2019-04-19T10:01:52.251Z,18.70
2019-04-19T10:04:18.846Z,18.70
2019-04-19T10:06:49.038Z,18.80
2019-04-19T10:09:22.208Z,18.80
2019-04-19T10:11:50.883Z,18.80
2019-04-19T10:14:21.451Z,18.90
2019-04-19T10:16:52.756Z,19.00
2019-04-19T10:19:22.639Z,19.10
2019-04-19T10:21:54.123Z,19.30
2019-04-19T10:24:24.668Z,19.30
2019-04-19T10:27:05.574Z,19.50
2019-04-19T10:29:38.487Z,19.50
2019-04-19T10:32:22.330Z,19.60
2019-04-19T10:34:52.538Z,19.70
2019-04-19T10:37:24.373Z,19.80
2019-04-19T10:39:55.223Z,19.90
2019-04-19T10:42:25.287Z,20.00
2019-04-19T10:44:56.147Z,21.10
2019-04-19T10:47:28.973Z,24.40
2019-04-19T10:50:11.928Z,27.40
2019-04-19T10:52:29.253Z,29.00
2019-04-19T10:54:59.505Z,31.10
2019-04-19T10:57:29.915Z,32.30
2019-04-19T11:00:02.833Z,33.10
2019-04-19T11:02:34.407Z,33.90
2019-04-19T11:05:07.283Z,33.40
2019-04-19T11:07:39.576Z,33.30
2019-04-19T11:10:09.692Z,34.00
2019-04-19T11:12:40.638Z,34.90
2019-04-19T11:15:10.861Z,36.00
2019-04-19T11:17:41.437Z,36.70
2019-04-19T11:20:23.906Z,37.20
2019-04-19T11:22:43.798Z,37.60
2019-04-19T11:25:14.409Z,37.20
2019-04-19T11:27:44.858Z,37.10
2019-04-19T11:30:16.998Z,37.20
2019-04-19T11:32:48.708Z,38.40
2019-04-19T11:35:19.359Z,38.40
2019-04-19T11:37:49.281Z,38.80
2019-04-19T11:40:19.574Z,38.80
2019-04-19T11:42:49.187Z,39.50
2019-04-19T11:45:19.795Z,40.30
2019-04-19T11:47:49.448Z,39.70
2019-04-19T11:50:19.888Z,39.80
2019-04-19T11:53:08.262Z,40.20
2019-04-19T11:55:40.560Z,40.10
2019-04-19T11:58:10.539Z,40.90
2019-04-19T12:00:43.282Z,41.20
2019-04-19T12:03:16.027Z,40.70
2019-04-19T12:05:46.274Z,40.80
2019-04-19T12:08:16.055Z,41.10
2019-04-19T12:10:46.436Z,41.60
2019-04-19T12:13:17.254Z,41.70
2019-04-19T12:15:49.100Z,42.70
2019-04-19T12:18:18.187Z,42.60
2019-04-19T12:20:49.454Z,42.50
2019-04-19T12:23:20.055Z,43.10
2019-04-19T12:25:51.268Z,43.20
2019-04-19T12:28:21.705Z,42.50
2019-04-19T12:30:53.861Z,42.90
2019-04-19T12:33:23.632Z,42.00
2019-04-19T12:35:53.302Z,43.60
2019-04-19T12:38:24.082Z,42.90
2019-04-19T12:41:01.742Z,42.80
2019-04-19T12:43:32.035Z,43.40
2019-04-19T12:46:02.917Z,42.90
2019-04-19T12:48:33.122Z,42.30
2019-04-19T12:51:03.631Z,43.00
2019-04-19T12:53:34.651Z,43.10
2019-04-19T12:56:04.594Z,43.40
2019-04-19T12:58:34.117Z,44.80
2019-04-19T13:01:14.582Z,45.50
2019-04-19T13:04:02.383Z,44.70
2019-04-19T13:06:33.792Z,45.60
2019-04-19T13:09:05.368Z,46.40
2019-04-19T13:11:35.000Z,46.40
2019-04-19T13:14:05.769Z,46.30
2019-04-19T13:16:36.583Z,46.50
2019-04-19T13:19:08.006Z,46.80
2019-04-19T13:21:38.630Z,47.20
2019-04-19T13:24:08.858Z,47.30
2019-04-19T13:26:39.027Z,47.60
2019-04-19T13:29:09.415Z,47.80
2019-04-19T13:31:40.759Z,47.60
2019-04-19T13:34:11.652Z,45.80
2019-04-19T13:36:49.111Z,44.40
2019-04-19T13:39:21.364Z,45.60
2019-04-19T13:41:52.933Z,46.30
2019-04-19T13:44:22.965Z,47.30
2019-04-19T13:46:52.884Z,47.70
2019-04-19T13:49:22.554Z,48.20
2019-04-19T13:51:52.544Z,48.20
2019-04-19T13:54:22.875Z,47.00
2019-04-19T13:56:52.837Z,45.20
2019-04-19T13:59:37.694Z,47.30
2019-04-19T14:01:54.495Z,47.50
2019-04-19T14:04:24.200Z,46.90
2019-04-19T14:06:54.153Z,46.90
2019-04-19T14:09:25.177Z,47.60
2019-04-19T14:11:55.250Z,48.00
2019-04-19T14:14:25.782Z,48.20
2019-04-19T14:16:55.756Z,48.40
2019-04-19T14:19:26.857Z,49.10
2019-04-19T14:21:57.257Z,48.40
2019-04-19T14:24:27.375Z,46.90
2019-04-19T14:26:59.126Z,46.40
2019-04-19T14:29:29.652Z,47.30
2019-04-19T14:31:59.595Z,47.90
2019-04-19T14:34:29.252Z,47.30
2019-04-19T14:37:00.168Z,47.30
2019-04-19T14:39:30.883Z,47.70
2019-04-19T14:42:01.405Z,48.10
2019-04-19T14:44:31.544Z,48.20
2019-04-19T14:47:01.268Z,48.70
2019-04-19T14:49:31.078Z,47.80
2019-04-19T14:52:02.032Z,47.50
2019-04-19T14:54:32.263Z,46.90
2019-04-19T14:57:02.922Z,46.50
2019-04-19T14:59:33.209Z,46.70
2019-04-19T15:02:05.013Z,46.60
2019-04-19T15:04:48.893Z,46.60
2019-04-19T15:07:18.699Z,46.90
2019-04-19T15:09:48.404Z,47.10
2019-04-19T15:12:18.586Z,47.60
2019-04-19T15:14:49.194Z,47.60
2019-04-19T15:17:19.514Z,46.30
2019-04-19T15:19:49.313Z,47.10
2019-04-19T15:22:19.935Z,47.40
2019-04-19T15:24:50.818Z,47.20
2019-04-19T15:27:21.027Z,46.70
2019-04-19T15:29:50.810Z,45.20
2019-04-19T15:32:20.473Z,45.30
2019-04-19T15:34:57.887Z,45.60
2019-04-19T15:37:27.680Z,45.60
2019-04-19T15:39:58.541Z,45.50
2019-04-19T15:42:28.873Z,45.70
2019-04-19T15:44:58.746Z,45.70
2019-04-19T15:47:28.626Z,45.50
2019-04-19T15:49:58.237Z,45.30
2019-04-19T15:52:28.237Z,45.00
2019-04-19T15:54:57.845Z,45.10
2019-04-19T15:57:28.105Z,44.90
2019-04-19T15:59:58.074Z,44.80
2019-04-19T16:02:29.836Z,44.20
2019-04-19T16:05:17.886Z,43.90
2019-04-19T16:07:58.242Z,43.50
2019-04-19T16:10:32.823Z,43.60
2019-04-19T16:13:03.565Z,43.30
2019-04-19T16:15:34.084Z,43.60
2019-04-19T16:18:04.128Z,43.20
2019-04-19T16:20:33.837Z,43.50
2019-04-19T16:23:03.420Z,43.20
2019-04-19T16:25:33.924Z,43.60
2019-04-19T16:28:03.631Z,43.20
2019-04-19T16:30:34.480Z,42.60
2019-04-19T16:33:04.286Z,42.50
2019-04-19T16:35:34.376Z,41.20
2019-04-19T16:38:05.724Z,40.70
2019-04-19T16:40:36.412Z,41.20
2019-04-19T16:43:06.112Z,41.20
2019-04-19T16:45:35.771Z,40.60
2019-04-19T16:48:07.751Z,40.30
2019-04-19T16:50:36.636Z,40.10
2019-04-19T16:53:07.738Z,39.60
2019-04-19T16:55:37.714Z,39.50
2019-04-19T16:58:08.510Z,39.70
2019-04-19T17:00:42.769Z,39.80
2019-04-19T17:03:14.072Z,39.50
2019-04-19T17:05:44.643Z,39.10
2019-04-19T17:08:15.569Z,38.60
2019-04-19T17:10:45.443Z,38.20
2019-04-19T17:13:15.060Z,37.80
2019-04-19T17:16:02.136Z,37.60
2019-04-19T17:18:34.561Z,37.00
2019-04-19T17:21:10.092Z,36.50
2019-04-19T17:23:40.546Z,35.20
2019-04-19T17:26:10.944Z,33.90
2019-04-19T17:28:40.995Z,32.80
2019-04-19T17:31:11.870Z,32.00
2019-04-19T17:33:42.109Z,31.40
2019-04-19T17:36:12.417Z,31.00
2019-04-19T17:38:46.941Z,30.70
2019-04-19T17:41:14.540Z,30.30
2019-04-19T17:43:45.445Z,29.90
2019-04-19T17:46:15.657Z,29.70
2019-04-19T17:48:46.487Z,29.40
2019-04-19T17:51:16.100Z,29.10
2019-04-19T17:53:49.071Z,28.90
2019-04-19T17:56:17.363Z,28.70
2019-04-19T17:58:48.458Z,28.50
2019-04-19T18:01:18.143Z,28.30
2019-04-19T18:03:48.997Z,28.10
2019-04-19T18:06:18.726Z,27.80
2019-04-19T18:08:49.081Z,27.50
2019-04-19T18:11:23.921Z,27.30
2019-04-19T18:13:50.991Z,27.10
2019-04-19T18:16:20.715Z,26.90
2019-04-19T18:18:52.660Z,26.80
2019-04-19T18:21:24.815Z,26.60
2019-04-19T18:24:06.159Z,26.40
2019-04-19T18:26:30.596Z,26.20
2019-04-19T18:28:58.785Z,26.00
2019-04-19T18:31:36.167Z,25.80
2019-04-19T18:34:06.762Z,25.70
2019-04-19T18:36:32.595Z,25.60
2019-04-19T18:39:02.816Z,25.40
2019-04-19T18:41:33.529Z,25.30
2019-04-19T18:44:13.198Z,25.10
2019-04-19T18:46:35.240Z,25.00
2019-04-19T18:49:07.567Z,24.90
2019-04-19T18:51:42.080Z,24.70
2019-04-19T18:54:13.357Z,24.60
2019-04-19T18:56:40.250Z,24.50
2019-04-19T18:59:16.808Z,24.40
2019-04-19T19:01:42.891Z,24.30
2019-04-19T19:04:18.461Z,24.20
2019-04-19T19:06:45.591Z,24.10
2019-04-19T19:09:16.594Z,24.00
2019-04-19T19:11:50.249Z,23.80
2019-04-19T19:14:21.015Z,23.70
2019-04-19T19:16:51.281Z,23.60
2019-04-19T19:19:26.665Z,23.50
2019-04-19T19:21:53.311Z,23.30
2019-04-19T19:24:46.330Z,23.20
2019-04-19T19:27:05.277Z,23.10
2019-04-19T19:29:25.911Z,23.00
2019-04-19T19:32:02.660Z,23.00
2019-04-19T19:34:31.303Z,22.90
2019-04-19T19:37:00.984Z,22.70
2019-04-19T19:39:35.210Z,22.70
2019-04-19T19:44:42.594Z,22.50
2019-04-19T19:47:49.289Z,22.40
2019-04-19T19:50:22.663Z,22.40
2019-04-19T19:52:44.270Z,22.30
2019-04-19T19:55:15.610Z,22.20
2019-04-19T19:57:40.619Z,22.10
2019-04-19T20:00:09.004Z,22.10
2019-04-19T20:02:45.509Z,22.00
2019-04-19T20:05:05.193Z,21.90
2019-04-19T20:07:39.638Z,21.90
2019-04-19T20:10:10.572Z,21.80
2019-04-19T20:12:43.354Z,21.70
2019-04-19T20:15:13.507Z,21.70
2019-04-19T20:17:48.138Z,21.50
2019-04-19T20:20:16.364Z,21.40
2019-04-19T20:22:48.570Z,21.20
2019-04-19T20:25:28.829Z,21.20
2019-04-19T20:27:52.076Z,21.10
2019-04-19T20:30:21.494Z,21.10
2019-04-19T20:32:55.793Z,21.00
2019-04-19T20:35:24.641Z,20.90
2019-04-19T20:37:57.434Z,20.80
2019-04-19T20:40:27.580Z,20.70
2019-04-19T20:43:16.261Z,20.60
2019-04-19T20:45:36.589Z,20.50
2019-04-19T20:48:07.591Z,20.20
2019-04-19T20:50:42.561Z,20.00
2019-04-19T20:53:18.274Z,19.90
2019-04-19T20:56:10.225Z,19.80
2019-04-19T20:58:24.066Z,19.80
2019-04-19T21:00:44.081Z,19.80
2019-04-19T21:03:16.568Z,19.70
2019-04-19T21:05:49.358Z,19.60
2019-04-19T21:08:20.744Z,19.50
2019-04-19T21:10:56.048Z,19.40
2019-04-19T21:13:21.237Z,19.40
2019-04-19T21:15:51.844Z,19.40
2019-04-19T21:18:25.602Z,19.30
2019-04-19T21:20:55.723Z,19.30
2019-04-19T21:23:27.897Z,19.30
2019-04-19T21:26:00.443Z,19.20
2019-04-19T21:28:34.992Z,19.10
2019-04-19T21:31:02.422Z,19.10
2019-04-19T21:33:30.888Z,19.00
2019-04-19T21:36:04.675Z,18.90
2019-04-19T21:38:31.819Z,18.90
2019-04-19T21:41:12.311Z,18.80
2019-04-19T21:43:36.902Z,18.70
2019-04-19T21:46:05.521Z,18.60
2019-04-19T21:48:38.477Z,18.50
2019-04-19T21:51:11.862Z,18.40
2019-04-19T21:53:41.007Z,18.40
2019-04-19T21:56:14.493Z,18.30
2019-04-19T21:58:46.488Z,18.20
2019-04-19T22:01:16.050Z,18.10
2019-04-19T22:03:44.301Z,18.10
2019-04-19T22:06:21.090Z,18.00
2019-04-19T22:08:46.048Z,18.00
2019-04-19T22:11:16.339Z,18.00
2019-04-19T22:13:50.383Z,17.90
2019-04-19T22:16:21.634Z,17.90
2019-04-19T22:18:52.899Z,17.80
2019-04-19T22:21:20.827Z,17.70
2019-04-19T22:23:53.366Z,17.60
2019-04-19T22:26:29.878Z,17.60
2019-04-19T22:28:53.459Z,17.60
2019-04-19T22:31:27.576Z,17.50
2019-04-19T22:33:54.629Z,17.50
2019-04-19T22:36:24.228Z,17.30
2019-04-19T22:38:58.557Z,17.20
2019-04-19T22:41:26.848Z,17.00
2019-04-19T22:43:56.503Z,17.00
2019-04-19T22:46:26.081Z,17.00
2019-04-19T22:49:00.155Z,16.90
2019-04-19T22:51:30.812Z,16.90
2019-04-19T22:54:00.917Z,16.80
2019-04-19T22:56:36.589Z,16.70
2019-04-19T22:59:07.278Z,16.60
2019-04-19T23:01:56.391Z,16.50
2019-04-19T23:04:24.723Z,16.60
2019-04-19T23:06:58.864Z,16.60
2019-04-19T23:09:24.925Z,16.60
2019-04-19T23:11:55.479Z,16.50
2019-04-19T23:14:41.913Z,16.50
2019-04-19T23:17:10.478Z,16.40
2019-04-19T23:19:46.169Z,16.40
2019-04-19T23:22:14.367Z,16.30
2019-04-19T23:24:50.031Z,16.20
2019-04-19T23:27:29.008Z,16.20
2019-04-19T23:29:46.573Z,16.10
2019-04-19T23:32:23.934Z,16.00
2019-04-19T23:34:51.598Z,15.90
2019-04-19T23:37:19.617Z,15.80
2019-04-19T23:39:52.686Z,15.80
2019-04-19T23:42:20.798Z,15.70
2019-04-19T23:44:56.415Z,15.60
2019-04-19T23:47:22.406Z,15.50
2019-04-19T23:49:54.541Z,15.30
2019-04-19T23:52:23.440Z,15.30
2019-04-19T23:54:54.471Z,15.20
2019-04-19T23:57:31.548Z,15.20
